createdAt,value
2018-07-25T00:00:04.571Z,18.437
2018-07-25T00:01:05.210Z,18.5
2018-07-25T00:02:03.586Z,18.437
2018-07-25T00:03:04.234Z,18.437
2018-07-25T00:04:03.787Z,18.437
2018-07-25T00:05:04.417Z,18.375
2018-07-25T00:06:03.679Z,18.375
2018-07-25T00:07:04.115Z,18.312
2018-07-25T00:08:03.846Z,18.312
2018-07-25T00:09:03.953Z,18.25
2018-07-25T00:10:03.376Z,18.25
2018-07-25T00:11:04.093Z,18.312
2018-07-25T00:12:03.774Z,18.312
2018-07-25T00:13:03.427Z,18.312
2018-07-25T00:14:03.894Z,18.312
2018-07-25T00:15:03.491Z,18.375
2018-07-25T00:16:04.039Z,18.375
2018-07-25T00:17:03.773Z,18.375
2018-07-25T00:18:04.272Z,18.375
2018-07-25T00:19:06.043Z,18.375
2018-07-25T00:20:03.979Z,18.375
2018-07-25T00:21:03.610Z,18.312
2018-07-25T00:22:04.194Z,18.375
2018-07-25T00:23:03.609Z,18.437
2018-07-25T00:24:03.998Z,18.437
2018-07-25T00:25:04.157Z,18.437
2018-07-25T00:26:03.809Z,18.5
2018-07-25T00:27:03.481Z,18.5
2018-07-25T00:28:04.307Z,18.5
2018-07-25T00:29:03.697Z,18.5
2018-07-25T00:30:03.402Z,18.5
2018-07-25T00:31:03.849Z,18.5
2018-07-25T00:32:03.317Z,18.562
2018-07-25T00:33:04.027Z,18.5
2018-07-25T00:34:03.500Z,18.5
2018-07-25T00:35:04.136Z,18.5
2018-07-25T00:36:03.449Z,18.437
2018-07-25T00:37:03.587Z,18.437
2018-07-25T00:38:03.331Z,18.437
2018-07-25T00:39:04.779Z,18.375
2018-07-25T00:40:03.503Z,18.375
2018-07-25T00:41:04.152Z,18.375
2018-07-25T00:42:03.716Z,18.375
2018-07-25T00:43:04.205Z,18.312
2018-07-25T00:44:03.601Z,18.312
2018-07-25T00:45:03.892Z,18.312
2018-07-25T00:46:03.548Z,18.312
2018-07-25T00:47:03.633Z,18.312
2018-07-25T00:48:09.123Z,18.312
2018-07-25T00:49:04.013Z,18.312
2018-07-25T00:50:03.644Z,18.25
2018-07-25T00:51:04.105Z,18.25
2018-07-25T00:52:03.573Z,18.25
2018-07-25T00:53:04.336Z,18.187
2018-07-25T00:54:03.504Z,18.187
2018-07-25T00:55:04.251Z,18.125
2018-07-25T00:56:03.915Z,18.062
2018-07-25T00:57:03.689Z,18.062
2018-07-25T00:58:03.461Z,18
2018-07-25T00:59:03.995Z,18
2018-07-25T01:01:04.154Z,17.937
2018-07-25T01:02:03.814Z,17.937
2018-07-25T01:03:04.158Z,17.875
2018-07-25T01:04:03.722Z,17.875
2018-07-25T01:05:04.244Z,17.875
2018-07-25T01:06:03.798Z,17.937
2018-07-25T01:07:03.463Z,17.875
2018-07-25T01:08:04.038Z,17.875
2018-07-25T01:09:03.645Z,17.875
2018-07-25T01:10:03.604Z,17.812
2018-07-25T01:11:03.477Z,17.812
2018-07-25T01:12:04.214Z,17.75
2018-07-25T01:13:03.915Z,17.75
2018-07-25T01:14:03.285Z,17.687
2018-07-25T01:15:03.674Z,17.625
2018-07-25T01:16:04.215Z,17.625
2018-07-25T01:17:04.078Z,17.625
2018-07-25T01:18:03.739Z,17.625
2018-07-25T01:19:03.327Z,17.625
2018-07-25T01:20:03.904Z,17.625
2018-07-25T01:21:03.480Z,17.687
2018-07-25T01:22:04.133Z,17.687
2018-07-25T01:23:03.671Z,17.687
2018-07-25T01:24:03.719Z,17.687
2018-07-25T01:25:03.461Z,17.687
2018-07-25T01:26:04.258Z,17.687
2018-07-25T01:27:04.041Z,17.75
2018-07-25T01:28:03.754Z,17.75
2018-07-25T01:29:03.843Z,17.812
2018-07-25T01:30:04.641Z,17.812
2018-07-25T01:31:03.964Z,17.812
2018-07-25T01:32:03.543Z,17.875
2018-07-25T01:33:04.959Z,17.937
2018-07-25T01:34:05.055Z,17.937
2018-07-25T01:35:03.333Z,17.937
2018-07-25T01:36:03.914Z,17.937
2018-07-25T01:37:03.600Z,17.937
2018-07-25T01:38:04.080Z,17.937
2018-07-25T01:39:03.899Z,17.937
2018-07-25T01:40:04.157Z,17.937
2018-07-25T01:41:03.705Z,17.875
2018-07-25T01:42:04.254Z,17.812
2018-07-25T01:43:03.778Z,17.75
2018-07-25T01:44:04.369Z,17.687
2018-07-25T01:45:03.839Z,17.625
2018-07-25T01:46:03.461Z,17.562
2018-07-25T01:47:04.161Z,17.562
2018-07-25T01:48:03.752Z,17.5
2018-07-25T01:49:03.331Z,17.437
2018-07-25T01:50:03.983Z,17.437
2018-07-25T01:51:04.551Z,17.375
2018-07-25T01:52:03.573Z,17.375
2018-07-25T01:53:04.209Z,17.312
2018-07-25T01:54:04.233Z,17.312
2018-07-25T01:55:03.657Z,17.25
2018-07-25T01:56:04.209Z,17.25
2018-07-25T01:57:03.496Z,17.25
2018-07-25T01:58:03.908Z,17.187
2018-07-25T01:59:03.528Z,17.187
2018-07-25T02:00:03.481Z,17.187
2018-07-25T02:01:04.089Z,17.187
2018-07-25T02:02:03.767Z,17.125
2018-07-25T02:03:04.272Z,17.187
2018-07-25T02:04:04.333Z,17.187
2018-07-25T02:05:03.780Z,17.187
2018-07-25T02:06:03.300Z,17.187
2018-07-25T02:07:03.891Z,17.187
2018-07-25T02:08:03.328Z,17.187
2018-07-25T02:09:04.991Z,17.187
2018-07-25T02:10:04.253Z,17.187
2018-07-25T02:11:03.920Z,17.125
2018-07-25T02:12:04.247Z,17.125
2018-07-25T02:13:04.052Z,17.125
2018-07-25T02:14:04.347Z,17.125
2018-07-25T02:15:04.083Z,17.125
2018-07-25T02:16:04.223Z,17.062
2018-07-25T02:17:03.896Z,17.062
2018-07-25T02:18:03.431Z,17.062
2018-07-25T02:19:03.981Z,17.062
2018-07-25T02:20:03.525Z,17
2018-07-25T02:21:04.148Z,17
2018-07-25T02:22:03.425Z,17
2018-07-25T02:23:03.978Z,16.937
2018-07-25T02:24:03.637Z,16.937
2018-07-25T02:25:04.133Z,16.937
2018-07-25T02:26:03.576Z,16.875
2018-07-25T02:27:03.899Z,16.875
2018-07-25T02:28:03.685Z,16.875
2018-07-25T02:29:03.802Z,16.875
2018-07-25T02:30:03.395Z,16.875
2018-07-25T02:31:03.811Z,16.875
2018-07-25T02:32:03.383Z,16.875
2018-07-25T02:33:03.911Z,16.875
2018-07-25T02:34:04.288Z,16.875
2018-07-25T02:35:03.663Z,16.875
2018-07-25T02:36:04.348Z,16.875
2018-07-25T02:37:03.530Z,16.875
2018-07-25T02:38:04.115Z,16.875
2018-07-25T02:39:03.930Z,16.875
2018-07-25T02:40:03.517Z,16.875
2018-07-25T02:41:04.865Z,16.875
2018-07-25T02:42:04.002Z,16.937
2018-07-25T02:43:03.249Z,16.937
2018-07-25T02:44:04.435Z,16.937
2018-07-25T02:45:03.623Z,16.937
2018-07-25T02:46:04.198Z,16.937
2018-07-25T02:47:03.637Z,16.937
2018-07-25T02:48:04.205Z,16.937
2018-07-25T02:49:03.329Z,16.937
2018-07-25T02:50:04.011Z,16.937
2018-07-25T02:51:03.646Z,16.937
2018-07-25T02:52:04.210Z,16.937
2018-07-25T02:53:03.498Z,16.937
2018-07-25T02:54:04.023Z,17
2018-07-25T02:55:03.478Z,17
2018-07-25T02:56:04.013Z,17
2018-07-25T02:57:03.687Z,17
2018-07-25T02:58:03.280Z,17
2018-07-25T02:59:04.105Z,16.937
2018-07-25T03:00:04.478Z,16.937
2018-07-25T03:01:03.644Z,16.937
2018-07-25T03:02:04.336Z,16.937
2018-07-25T03:03:03.597Z,16.875
2018-07-25T03:04:04.220Z,16.937
2018-07-25T03:05:03.912Z,16.937
2018-07-25T03:06:03.464Z,16.937
2018-07-25T03:07:04.096Z,16.875
2018-07-25T03:08:03.731Z,16.875
2018-07-25T03:09:04.485Z,16.875
2018-07-25T03:10:03.608Z,16.812
2018-07-25T03:11:03.944Z,16.812
2018-07-25T03:12:03.445Z,16.812
2018-07-25T03:13:04.168Z,16.812
2018-07-25T03:14:04.121Z,16.812
2018-07-25T03:15:03.608Z,16.875
2018-07-25T03:16:03.337Z,16.875
2018-07-25T03:17:04.014Z,16.875
2018-07-25T03:18:04.265Z,16.875
2018-07-25T03:19:03.884Z,16.937
2018-07-25T03:20:03.915Z,16.937
2018-07-25T03:21:04.200Z,16.937
2018-07-25T03:22:03.680Z,17
2018-07-25T03:23:03.251Z,17
2018-07-25T03:24:04.029Z,17
2018-07-25T03:25:04.307Z,17
2018-07-25T03:26:04.508Z,17
2018-07-25T03:27:04.116Z,17
2018-07-25T03:28:03.615Z,17
2018-07-25T03:29:04.273Z,17
2018-07-25T03:30:03.873Z,17
2018-07-25T03:31:04.006Z,17
2018-07-25T03:32:03.712Z,17.062
2018-07-25T03:33:04.262Z,17.062
2018-07-25T03:34:03.683Z,17.062
2018-07-25T03:35:05.175Z,17.062
2018-07-25T03:36:03.880Z,17.062
2018-07-25T03:37:03.425Z,17.062
2018-07-25T03:38:04.243Z,17.062
2018-07-25T03:39:05.543Z,17.062
2018-07-25T03:40:03.808Z,17.062
2018-07-25T03:41:03.518Z,17.062
2018-07-25T03:42:04.116Z,17.125
2018-07-25T03:43:03.684Z,17.062
2018-07-25T03:44:03.413Z,17.125
2018-07-25T03:45:04.064Z,17.125
2018-07-25T03:46:03.552Z,17.125
2018-07-25T03:47:04.238Z,17.125
2018-07-25T03:48:03.634Z,17.187
2018-07-25T03:49:04.588Z,17.187
2018-07-25T03:50:03.941Z,17.187
2018-07-25T03:51:03.483Z,17.25
2018-07-25T03:52:04.137Z,17.25
2018-07-25T03:53:03.374Z,17.25
2018-07-25T03:54:03.975Z,17.25
2018-07-25T03:55:03.447Z,17.25
2018-07-25T03:56:04.199Z,17.312
2018-07-25T03:57:03.753Z,17.312
2018-07-25T03:58:03.455Z,17.375
2018-07-25T03:59:03.796Z,17.375
2018-07-25T04:00:03.494Z,17.437
2018-07-25T04:01:03.709Z,17.437
2018-07-25T04:02:04.453Z,17.5
2018-07-25T04:03:04.080Z,17.5
2018-07-25T04:04:03.717Z,17.5
2018-07-25T04:05:04.429Z,17.562
2018-07-25T04:06:03.865Z,17.562
2018-07-25T04:07:03.285Z,17.562
2018-07-25T04:08:03.915Z,17.625
2018-07-25T04:09:03.553Z,17.687
2018-07-25T04:10:03.439Z,17.75
2018-07-25T04:11:03.954Z,17.812
2018-07-25T04:12:03.354Z,17.875
2018-07-25T04:13:03.928Z,17.937
2018-07-25T04:14:04.767Z,18
2018-07-25T04:15:04.062Z,18.187
2018-07-25T04:16:03.776Z,18.687
2018-07-25T04:17:04.442Z,19.062
2018-07-25T04:18:03.744Z,19.25
2018-07-25T04:19:03.507Z,19.5
2018-07-25T04:20:03.252Z,19.75
2018-07-25T04:21:03.422Z,20.062
2018-07-25T04:22:03.949Z,20.187
2018-07-25T04:23:03.686Z,20.187
2018-07-25T04:24:04.787Z,20.187
2018-07-25T04:25:04.608Z,20.187
2018-07-25T04:26:03.454Z,20.125
2018-07-25T04:27:03.949Z,20.062
2018-07-25T04:28:03.245Z,20.062
2018-07-25T04:29:03.766Z,20.375
2018-07-25T04:30:03.599Z,20.687
2018-07-25T04:31:03.459Z,21.125
2018-07-25T04:32:03.887Z,21.5
2018-07-25T04:33:03.492Z,21.687
2018-07-25T04:34:04.359Z,21.687
2018-07-25T04:35:03.909Z,21.687
2018-07-25T04:36:03.845Z,21.687
2018-07-25T04:37:03.421Z,21.687
2018-07-25T04:38:05.280Z,21.75
2018-07-25T04:39:06.100Z,21.937
2018-07-25T04:40:03.381Z,21.937
2018-07-25T04:41:03.457Z,21.937
2018-07-25T04:42:04.196Z,21.937
2018-07-25T04:43:03.526Z,21.937
2018-07-25T04:44:03.910Z,22.062
2018-07-25T04:45:03.492Z,22.375
2018-07-25T04:46:04.162Z,22.812
2018-07-25T04:47:03.603Z,23.312
2018-07-25T04:48:04.472Z,23.75
2018-07-25T04:49:05.399Z,24.125
2018-07-25T04:50:03.664Z,24.187
2018-07-25T04:51:03.375Z,24.25
2018-07-25T04:52:03.478Z,24.5
2018-07-25T04:53:03.540Z,24.875
2018-07-25T04:54:03.802Z,25.187
2018-07-25T04:55:03.338Z,25.562
2018-07-25T04:56:03.857Z,25.812
2018-07-25T04:57:03.658Z,26.062
2018-07-25T04:58:04.253Z,26.375
2018-07-25T04:59:04.437Z,26.625
2018-07-25T05:00:04.008Z,26.75
2018-07-25T05:01:03.490Z,27
2018-07-25T05:02:04.168Z,27.187
2018-07-25T05:03:03.438Z,27.312
2018-07-25T05:04:03.515Z,27.5
2018-07-25T05:05:04.208Z,27.625
2018-07-25T05:06:03.681Z,27.812
2018-07-25T05:07:04.187Z,27.875
2018-07-25T05:08:03.439Z,27.937
2018-07-25T05:09:04.315Z,28.062
2018-07-25T05:10:03.884Z,28.187
2018-07-25T05:11:03.613Z,28.312
2018-07-25T05:12:04.143Z,28.687
2018-07-25T05:13:03.688Z,28.75
2018-07-25T05:14:03.371Z,28.875
2018-07-25T05:15:03.666Z,29
2018-07-25T05:16:03.467Z,29.25
2018-07-25T05:17:04.238Z,29.312
2018-07-25T05:18:04.792Z,29.437
2018-07-25T05:19:04.179Z,29.5
2018-07-25T05:20:03.767Z,29.5
2018-07-25T05:21:04.212Z,29.437
2018-07-25T05:22:03.505Z,29.5
2018-07-25T05:23:03.758Z,29.625
2018-07-25T05:24:05.324Z,29.687
2018-07-25T05:25:03.824Z,29.687
2018-07-25T05:26:03.819Z,29.75
2018-07-25T05:27:03.297Z,29.687
2018-07-25T05:28:03.926Z,29.875
2018-07-25T05:29:03.578Z,29.937
2018-07-25T05:30:03.574Z,30.062
2018-07-25T05:31:03.966Z,30.187
2018-07-25T05:32:03.538Z,30.25
2018-07-25T05:33:04.257Z,30.062
2018-07-25T05:34:04.149Z,29.937
2018-07-25T05:35:03.479Z,29.812
2018-07-25T05:36:04.185Z,29.937
2018-07-25T05:37:03.700Z,29.937
2018-07-25T05:38:04.300Z,30.125
2018-07-25T05:39:06.089Z,30.187
2018-07-25T05:40:03.932Z,30.375
2018-07-25T05:41:03.742Z,30.5
2018-07-25T05:42:03.336Z,30.437
2018-07-25T05:43:04.170Z,30.5
2018-07-25T05:44:04.090Z,30.562
2018-07-25T05:45:03.755Z,30.625
2018-07-25T05:46:04.247Z,30.812
2018-07-25T05:47:03.846Z,31
2018-07-25T05:48:04.267Z,31.25
2018-07-25T05:49:03.766Z,31.312
2018-07-25T05:50:04.242Z,31.625
2018-07-25T05:51:03.722Z,31.812
2018-07-25T05:52:04.272Z,31.875
2018-07-25T05:53:04.336Z,32
2018-07-25T05:54:03.915Z,32
2018-07-25T05:55:03.369Z,32
2018-07-25T05:56:03.771Z,32.062
2018-07-25T05:57:04.286Z,32.187
2018-07-25T05:58:03.626Z,32.437
2018-07-25T05:59:06.002Z,32.625
2018-07-25T06:00:03.506Z,32.75
2018-07-25T06:01:03.804Z,32.937
2018-07-25T06:02:03.515Z,33.062
2018-07-25T06:03:04.272Z,33.125
2018-07-25T06:04:03.781Z,33.062
2018-07-25T06:05:04.159Z,33.062
2018-07-25T06:06:03.555Z,32.937
2018-07-25T06:07:04.171Z,33.187
2018-07-25T06:08:03.611Z,33.312
2018-07-25T06:09:05.724Z,33.375
2018-07-25T06:10:04.156Z,33.437
2018-07-25T06:11:03.495Z,33.25
2018-07-25T06:12:04.203Z,33.25
2018-07-25T06:13:03.769Z,33.062
2018-07-25T06:14:03.338Z,33.062
2018-07-25T06:15:03.914Z,33.125
2018-07-25T06:16:03.617Z,33.187
2018-07-25T06:17:04.451Z,33.125
2018-07-25T06:18:03.767Z,33.312
2018-07-25T06:19:03.493Z,33.437
2018-07-25T06:20:03.887Z,33.562
2018-07-25T06:23:03.324Z,34
2018-07-25T06:24:03.526Z,34.187
2018-07-25T06:25:04.263Z,34.375
2018-07-25T06:26:03.507Z,34.562
2018-07-25T06:27:04.402Z,34.625
2018-07-25T06:28:03.683Z,34.687
2018-07-25T06:29:05.190Z,34.687
2018-07-25T06:30:03.505Z,34.812
2018-07-25T06:31:04.029Z,34.687
2018-07-25T06:32:03.617Z,34.812
2018-07-25T06:33:04.222Z,34.687
2018-07-25T06:34:03.591Z,34.687
2018-07-25T06:35:03.784Z,34.812
2018-07-25T06:36:04.138Z,34.812
2018-07-25T06:37:03.516Z,34.75
2018-07-25T06:38:03.972Z,34.375
2018-07-25T06:39:05.071Z,34.187
2018-07-25T06:40:04.452Z,34
2018-07-25T06:41:03.879Z,33.937
2018-07-25T06:42:03.484Z,33.812
2018-07-25T06:43:04.160Z,33.875
2018-07-25T06:44:03.697Z,33.812
2018-07-25T06:45:04.164Z,33.687
2018-07-25T06:46:03.910Z,33.5
2018-07-25T06:47:03.510Z,33.75
2018-07-25T06:48:04.226Z,33.875
2018-07-25T06:49:04.028Z,33.75
2018-07-25T06:50:03.341Z,33.812
2018-07-25T06:51:03.934Z,33.812
2018-07-25T06:52:03.370Z,33.625
2018-07-25T06:53:03.387Z,33.25
2018-07-25T06:54:04.240Z,33.187
2018-07-25T06:55:03.481Z,33.312
2018-07-25T06:56:04.001Z,33.562
2018-07-25T06:57:03.762Z,33.75
2018-07-25T06:58:03.663Z,33.875
2018-07-25T06:59:03.999Z,33.937
2018-07-25T07:00:04.261Z,33.812
2018-07-25T07:01:03.974Z,34.062
2018-07-25T07:02:03.513Z,33.875
2018-07-25T07:03:04.107Z,33.812
2018-07-25T07:04:03.419Z,33.875
2018-07-25T07:05:03.864Z,33.875
2018-07-25T07:06:03.563Z,33.875
2018-07-25T07:07:04.194Z,34.187
2018-07-25T07:08:03.704Z,34.562
2018-07-25T07:09:04.405Z,34.937
2018-07-25T07:10:03.751Z,35.187
2018-07-25T07:11:04.315Z,35.25
2018-07-25T07:12:03.793Z,34.875
2018-07-25T07:13:03.521Z,34.625
2018-07-25T07:14:06.008Z,34.437
2018-07-25T07:15:04.274Z,34.375
2018-07-25T07:16:03.848Z,34.812
2018-07-25T07:17:04.565Z,34.812
2018-07-25T07:18:04.328Z,34.937
2018-07-25T07:19:04.009Z,34.937
2018-07-25T07:20:03.704Z,34.812
2018-07-25T07:21:04.297Z,34.875
2018-07-25T07:22:03.750Z,35.125
2018-07-25T07:23:04.226Z,35.437
2018-07-25T07:24:04.499Z,35.625
2018-07-25T07:25:03.751Z,35.5
2018-07-25T07:26:03.510Z,35.562
2018-07-25T07:27:03.947Z,35.75
2018-07-25T07:28:03.687Z,35.687
2018-07-25T07:29:03.439Z,35.937
2018-07-25T07:30:03.780Z,36.187
2018-07-25T07:31:04.138Z,36.5
2018-07-25T07:32:03.579Z,36.5
2018-07-25T07:33:04.283Z,36.625
2018-07-25T07:34:03.965Z,36.5
2018-07-25T07:35:03.749Z,36.375
2018-07-25T07:36:03.519Z,36.375
2018-07-25T07:37:04.303Z,36
2018-07-25T07:38:03.785Z,35.687
2018-07-25T07:39:05.009Z,35.812
2018-07-25T07:40:04.387Z,36.062
2018-07-25T07:41:04.085Z,36.062
2018-07-25T07:42:03.767Z,36.25
2018-07-25T07:43:04.243Z,36.312
2018-07-25T07:44:04.085Z,36.25
2018-07-25T07:45:04.096Z,36.187
2018-07-25T07:46:03.807Z,36.5
2018-07-25T07:47:03.636Z,36.5
2018-07-25T07:48:03.574Z,36.25
2018-07-25T07:49:03.841Z,36.312
2018-07-25T07:50:03.352Z,36.187
2018-07-25T07:51:04.164Z,36.125
2018-07-25T07:52:04.002Z,36.187
2018-07-25T07:53:03.863Z,36.437
2018-07-25T07:54:03.553Z,36.562
2018-07-25T07:55:03.420Z,36.5
2018-07-25T07:56:04.082Z,36.187
2018-07-25T07:57:03.396Z,36
2018-07-25T07:58:03.994Z,35.75
2018-07-25T07:59:03.992Z,35.875
2018-07-25T08:00:03.676Z,35.875
2018-07-25T08:01:04.322Z,36
2018-07-25T08:02:03.847Z,35.937
2018-07-25T08:03:03.578Z,36
2018-07-25T08:04:04.137Z,36.25
2018-07-25T08:05:03.732Z,36.312
2018-07-25T08:06:03.481Z,36.375
2018-07-25T08:07:03.865Z,36.625
2018-07-25T08:08:03.654Z,37
2018-07-25T08:09:04.515Z,37.187
2018-07-25T08:10:04.316Z,37.187
2018-07-25T08:11:03.803Z,37
2018-07-25T08:12:03.538Z,36.875
2018-07-25T08:13:03.669Z,36.812
2018-07-25T08:14:04.683Z,36.562
2018-07-25T08:15:04.320Z,36.25
2018-07-25T08:16:03.877Z,36.375
2018-07-25T08:17:03.605Z,36.375
2018-07-25T08:18:04.366Z,36.375
2018-07-25T08:19:03.772Z,35.937
2018-07-25T08:20:03.574Z,35.5
2018-07-25T08:21:03.893Z,35
2018-07-25T08:22:05.374Z,34.687
2018-07-25T08:23:03.609Z,34.625
2018-07-25T08:24:04.343Z,34.312
2018-07-25T08:25:03.525Z,34.25
2018-07-25T08:26:03.890Z,34.125
2018-07-25T08:27:03.512Z,33.875
2018-07-25T08:28:04.170Z,33.687
2018-07-25T08:29:03.602Z,33.5
2018-07-25T08:30:04.155Z,33.25
2018-07-25T08:31:03.683Z,33.062
2018-07-25T08:32:03.509Z,32.937
2018-07-25T08:33:04.008Z,32.75
2018-07-25T08:34:03.832Z,32.687
2018-07-25T08:35:04.207Z,32.687
2018-07-25T08:36:03.908Z,32.812
2018-07-25T08:37:03.546Z,33
2018-07-25T08:38:03.416Z,33.312
2018-07-25T08:39:05.064Z,33.75
2018-07-25T08:40:03.840Z,34.187
2018-07-25T08:41:03.583Z,34.125
2018-07-25T08:42:04.227Z,33.937
2018-07-25T08:43:03.898Z,33.75
2018-07-25T08:44:03.673Z,33.75
2018-07-25T08:45:03.522Z,33.812
2018-07-25T08:46:04.096Z,34
2018-07-25T08:47:03.690Z,34.25
2018-07-25T08:48:03.810Z,34.375
2018-07-25T08:49:04.705Z,33.937
2018-07-25T08:50:04.140Z,33.437
2018-07-25T08:51:03.672Z,33
2018-07-25T08:52:05.280Z,32.812
2018-07-25T08:53:03.552Z,32.687
2018-07-25T08:54:04.114Z,32.75
2018-07-25T08:55:04.232Z,32.812
2018-07-25T08:56:04.246Z,32.812
2018-07-25T08:57:03.589Z,32.875
2018-07-25T08:58:04.167Z,32.875
2018-07-25T08:59:03.864Z,32.937
2018-07-25T09:00:03.632Z,33.187
2018-07-25T09:01:05.509Z,33.187
2018-07-25T09:02:03.904Z,33.312
2018-07-25T09:03:03.442Z,33.437
2018-07-25T09:04:03.746Z,33.812
2018-07-25T09:05:03.397Z,34.25
2018-07-25T09:06:03.970Z,34.562
2018-07-25T09:07:03.422Z,34.625
2018-07-25T09:08:04.083Z,34.812
2018-07-25T09:09:05.108Z,35
2018-07-25T09:10:03.440Z,34.937
2018-07-25T09:11:03.987Z,34.937
2018-07-25T09:12:03.718Z,34.937
2018-07-25T09:13:04.262Z,34.937
2018-07-25T09:14:03.766Z,35.062
2018-07-25T09:15:04.270Z,35.187
2018-07-25T09:16:03.467Z,35.25
2018-07-25T09:17:04.185Z,35.375
2018-07-25T09:18:03.914Z,35.25
2018-07-25T09:19:04.605Z,35.312
2018-07-25T09:20:04.062Z,34.937
2018-07-25T09:21:03.679Z,34.687
2018-07-25T09:22:04.308Z,34.625
2018-07-25T09:23:03.702Z,34.562
2018-07-25T09:24:03.432Z,34.562
2018-07-25T09:25:04.051Z,34.625
2018-07-25T09:26:03.714Z,34.5
2018-07-25T09:27:04.266Z,34.562
2018-07-25T09:28:03.503Z,34.437
2018-07-25T09:29:04.121Z,34.187
2018-07-25T09:30:04.077Z,33.375
2018-07-25T09:31:03.682Z,32.562
2018-07-25T09:32:03.381Z,32.25
2018-07-25T09:33:04.078Z,32
2018-07-25T09:34:04.016Z,31.875
2018-07-25T09:35:03.731Z,31.75
2018-07-25T09:36:04.244Z,31.562
2018-07-25T09:37:03.906Z,31.5
2018-07-25T09:38:03.925Z,31.125
2018-07-25T09:39:03.904Z,31
2018-07-25T09:40:03.590Z,30.875
2018-07-25T09:41:04.260Z,31.062
2018-07-25T09:42:03.910Z,31.25
2018-07-25T09:43:03.692Z,31.312
2018-07-25T09:44:04.889Z,31.562
2018-07-25T09:45:04.273Z,31.937
2018-07-25T09:46:03.867Z,32.312
2018-07-25T09:47:03.658Z,32.562
2018-07-25T09:48:04.312Z,32.75
2018-07-25T09:49:03.750Z,33
2018-07-25T09:50:03.366Z,33.25
2018-07-25T09:51:04.000Z,33.437
2018-07-25T09:52:03.601Z,33.5
2018-07-25T09:53:03.903Z,33.5
2018-07-25T09:54:03.642Z,33.562
2018-07-25T09:55:04.111Z,33.625
2018-07-25T09:56:03.618Z,33.312
2018-07-25T09:57:03.544Z,33.062
2018-07-25T09:58:04.145Z,33.25
2018-07-25T09:59:03.856Z,33.312
2018-07-25T10:00:03.760Z,33.375
2018-07-25T10:01:03.835Z,33.312
2018-07-25T10:02:03.462Z,33.187
2018-07-25T10:03:03.972Z,33.062
2018-07-25T10:04:03.906Z,32.812
2018-07-25T10:05:03.822Z,32.437
2018-07-25T10:06:03.399Z,32.312
2018-07-25T10:07:04.011Z,32.187
2018-07-25T10:08:04.258Z,32.25
2018-07-25T10:09:05.329Z,32.375
2018-07-25T10:10:03.606Z,32.437
2018-07-25T10:11:03.446Z,32.375
2018-07-25T10:12:04.319Z,32.437
2018-07-25T10:13:04.126Z,32.437
2018-07-25T10:14:03.572Z,32.062
2018-07-25T10:15:04.415Z,31.875
2018-07-25T10:16:04.228Z,31.687
2018-07-25T10:17:03.675Z,31.625
2018-07-25T10:18:04.291Z,31.562
2018-07-25T10:19:06.130Z,31.25
2018-07-25T10:20:03.633Z,31.125
2018-07-25T10:21:04.210Z,31.125
2018-07-25T10:22:03.940Z,31.062
2018-07-25T10:23:03.476Z,30.937
2018-07-25T10:24:04.104Z,30.937
2018-07-25T10:25:03.687Z,30.75
2018-07-25T10:26:04.455Z,30.812
2018-07-25T10:27:03.599Z,30.875
2018-07-25T10:28:04.176Z,31.125
2018-07-25T10:29:04.396Z,31.437
2018-07-25T10:30:03.748Z,31.75
2018-07-25T10:31:04.367Z,32
2018-07-25T10:32:03.894Z,32.062
2018-07-25T10:33:03.897Z,31.875
2018-07-25T10:34:03.669Z,31.687
2018-07-25T10:35:03.690Z,31.437
2018-07-25T10:36:03.617Z,31.437
2018-07-25T10:37:05.268Z,31.5
2018-07-25T10:38:03.719Z,31.375
2018-07-25T10:39:04.251Z,31.375
2018-07-25T10:40:03.673Z,31.5
2018-07-25T10:41:03.442Z,31.687
2018-07-25T10:42:04.302Z,31.937
2018-07-25T10:43:03.770Z,32.187
2018-07-25T10:44:03.535Z,32.312
2018-07-25T10:45:03.454Z,32.5
2018-07-25T10:46:04.178Z,32.625
2018-07-25T10:47:03.693Z,32.75
2018-07-25T10:48:03.471Z,32.875
2018-07-25T10:49:03.749Z,32.937
2018-07-25T10:50:03.769Z,32.875
2018-07-25T10:51:03.345Z,32.75
2018-07-25T10:52:03.711Z,32.5
2018-07-25T10:53:04.644Z,32.187
2018-07-25T10:54:03.530Z,32.187
2018-07-25T10:55:04.226Z,32.25
2018-07-25T10:56:03.706Z,32.437
2018-07-25T10:57:04.333Z,32.625
2018-07-25T10:58:03.761Z,32.625
2018-07-25T10:59:03.479Z,32.562
2018-07-25T11:00:04.033Z,32.562
2018-07-25T11:01:03.770Z,32.687
2018-07-25T11:02:09.371Z,32.812
2018-07-25T11:03:03.642Z,33
2018-07-25T11:04:04.869Z,33.125
2018-07-25T11:05:03.607Z,33.187
2018-07-25T11:06:04.367Z,33.25
2018-07-25T11:07:03.996Z,33.312
2018-07-25T11:08:03.632Z,33.5
2018-07-25T11:09:04.512Z,33.5
2018-07-25T11:10:03.925Z,33.187
2018-07-25T11:11:03.417Z,33.062
2018-07-25T11:12:03.931Z,33.062
2018-07-25T11:13:03.912Z,33.062
2018-07-25T11:14:05.174Z,32.937
2018-07-25T11:15:04.291Z,32.75
2018-07-25T11:16:03.554Z,32.375
2018-07-25T11:17:04.560Z,32.187
2018-07-25T11:18:04.008Z,32
2018-07-25T11:19:03.811Z,32
2018-07-25T11:20:03.479Z,32
2018-07-25T11:21:03.617Z,32
2018-07-25T11:22:03.896Z,32.125
2018-07-25T11:23:03.951Z,32.125
2018-07-25T11:24:04.873Z,32.125
2018-07-25T11:25:04.204Z,32
2018-07-25T11:26:03.382Z,31.937
2018-07-25T11:27:04.200Z,32
2018-07-25T11:28:03.686Z,31.875
2018-07-25T11:29:03.533Z,32
2018-07-25T11:30:03.549Z,32.062
2018-07-25T11:31:04.238Z,32.187
2018-07-25T11:32:04.027Z,32.312
2018-07-25T11:33:03.761Z,32.375
2018-07-25T11:34:03.768Z,32.437
2018-07-25T11:35:04.328Z,32.5
2018-07-25T11:36:03.915Z,32.312
2018-07-25T11:37:04.057Z,32.187
2018-07-25T11:38:03.628Z,32.125
2018-07-25T11:39:04.479Z,32
2018-07-25T11:40:03.765Z,31.875
2018-07-25T11:41:03.472Z,31.812
2018-07-25T11:42:03.956Z,31.75
2018-07-25T11:43:04.176Z,31.75
2018-07-25T11:44:03.949Z,31.937
2018-07-25T11:45:03.706Z,32.125
2018-07-25T11:46:04.178Z,32.25
2018-07-25T11:47:03.590Z,32.437
2018-07-25T11:48:03.921Z,32.562
2018-07-25T11:49:03.519Z,32.625
2018-07-25T11:50:04.266Z,32.625
2018-07-25T11:51:03.644Z,32.5
2018-07-25T11:52:03.447Z,32.375
2018-07-25T11:53:03.700Z,32.375
2018-07-25T11:54:03.537Z,32.5
2018-07-25T11:55:04.361Z,32.562
2018-07-25T11:56:03.590Z,32.562
2018-07-25T11:57:04.166Z,32.437
2018-07-25T11:58:03.606Z,32.437
2018-07-25T11:59:04.841Z,32.437
2018-07-25T12:00:04.317Z,32.375
2018-07-25T12:01:04.869Z,32.437
2018-07-25T12:02:04.644Z,32.437
2018-07-25T12:03:04.255Z,32.5
2018-07-25T12:04:03.847Z,32.437
2018-07-25T12:05:03.488Z,32.5
2018-07-25T12:06:04.023Z,32.5
2018-07-25T12:07:03.600Z,32.5
2018-07-25T12:08:03.511Z,32.437
2018-07-25T12:09:05.220Z,32.375
2018-07-25T12:10:03.659Z,32.312
2018-07-25T12:11:04.263Z,32.375
2018-07-25T12:12:03.711Z,32.375
2018-07-25T12:13:03.537Z,32.375
2018-07-25T12:14:04.231Z,32.375
2018-07-25T12:15:04.258Z,32.375
2018-07-25T12:16:03.904Z,32.375
2018-07-25T12:17:03.802Z,32.375
2018-07-25T12:18:03.378Z,32.375
2018-07-25T12:19:03.488Z,32.25
2018-07-25T12:20:03.867Z,32.062
2018-07-25T12:21:03.521Z,31.937
2018-07-25T12:22:03.946Z,32
2018-07-25T12:23:03.830Z,31.937
2018-07-25T12:24:03.297Z,31.875
2018-07-25T12:25:03.633Z,31.875
2018-07-25T12:26:03.286Z,31.937
2018-07-25T12:27:03.865Z,32.125
2018-07-25T12:28:03.419Z,32.375
2018-07-25T12:29:04.120Z,32.562
2018-07-25T12:30:03.981Z,32.75
2018-07-25T12:31:03.592Z,32.875
2018-07-25T12:32:04.264Z,33.125
2018-07-25T12:33:04.127Z,33.187
2018-07-25T12:34:05.243Z,33
2018-07-25T12:35:04.290Z,32.812
2018-07-25T12:36:03.752Z,32.562
2018-07-25T12:37:03.677Z,32.5
2018-07-25T12:38:03.415Z,32.625
2018-07-25T12:39:04.309Z,32.75
2018-07-25T12:40:04.072Z,32.625
2018-07-25T12:41:03.760Z,32.375
2018-07-25T12:42:03.528Z,32.25
2018-07-25T12:43:03.421Z,32.125
2018-07-25T12:44:04.422Z,32.187